Time;durP1;ratioP1;P1;durP2;ratioP2;P2;SDS_P1;SDS_P2;PMS_P1;PMS_P2;Temp;Humidity;BMP_temperature;BMP_pressure;BME280_temperature;BME280_humidity;BME280_pressure;Samples;Min_cycle;Max_cycle;Signal;HPM_P1;HPM_P2
2023/03/01 00:01:29;;;;;;;8.37;5.20;;;2.50;99.90;;;;;;4921179;29;20233;-70
2023/03/01 00:03:56;;;;;;;9.63;5.60;;;2.50;99.90;;;;;;4917479;29;20250;-69
2023/03/01 00:06:22;;;;;;;9.73;4.80;;;2.50;99.90;;;;;;4915222;29;20468;-70
2023/03/01 00:08:48;;;;;;;10.80;5.80;;;2.40;99.90;;;;;;4915697;29;20554;-69
2023/03/01 00:11:16;;;;;;;7.83;5.60;;;2.40;99.90;;;;;;4910237;29;20517;-70
2023/03/01 00:13:43;;;;;;;8.17;5.13;;;2.40;99.90;;;;;;4919890;29;20525;-69
2023/03/01 00:16:18;;;;;;;14.80;5.63;;;2.50;99.90;;;;;;4940282;28;20466;-70
2023/03/01 00:18:44;;;;;;;6.03;4.80;;;2.40;99.90;;;;;;4927074;28;21047;-69
2023/03/01 00:21:10;;;;;;;10.97;5.40;;;2.40;99.90;;;;;;4939321;28;20552;-70
2023/03/01 00:23:37;;;;;;;8.50;5.43;;;2.40;99.90;;;;;;4924866;29;20703;-70
2023/03/01 00:26:07;;;;;;;8.90;6.33;;;2.40;99.90;;;;;;4915453;29;20461;-69
2023/03/01 00:28:32;;;;;;;7.17;5.07;;;2.40;99.90;;;;;;4914594;29;20459;-70
2023/03/01 00:31:10;;;;;;;12.27;6.13;;;2.30;99.90;;;;;;4901787;29;20485;-70
2023/03/01 00:33:36;;;;;;;7.60;5.00;;;2.30;99.90;;;;;;4921729;29;20218;-69
2023/03/01 00:36:03;;;;;;;6.37;4.60;;;2.20;99.90;;;;;;4914399;29;20467;-70
2023/03/01 00:38:29;;;;;;;10.67;6.27;;;2.30;99.90;;;;;;4919260;29;20658;-70
2023/03/01 00:40:55;;;;;;;9.77;5.07;;;2.30;99.90;;;;;;4911686;28;20974;-70
2023/03/01 00:43:21;;;;;;;10.50;5.60;;;2.20;99.90;;;;;;4927103;29;20492;-70
2023/03/01 00:45:46;;;;;;;9.17;5.40;;;2.20;99.90;;;;;;4921733;29;20610;-69
2023/03/01 00:48:12;;;;;;;9.43;6.60;;;2.10;99.90;;;;;;4916938;29;20541;-70
2023/03/01 00:50:38;;;;;;;12.40;5.60;;;2.10;99.90;;;;;;4938023;28;20304;-70
2023/03/01 00:53:04;;;;;;;12.90;6.13;;;2.20;99.90;;;;;;4941564;28;20593;-70
2023/03/01 00:55:30;;;;;;;11.57;5.20;;;2.30;99.90;;;;;;4911290;29;20582;-69
2023/03/01 00:57:56;;;;;;;13.17;6.33;;;2.00;99.90;;;;;;4915318;28;20510;-70
2023/03/01 01:00:22;;;;;;;9.43;6.20;;;2.00;99.90;;;;;;4920431;28;20225;-70
2023/03/01 01:02:48;;;;;;;8.83;5.60;;;2.10;99.90;;;;;;4918705;29;20292;-69
2023/03/01 01:05:14;;;;;;;11.47;5.40;;;2.00;99.90;;;;;;4907537;29;20470;-70
2023/03/01 01:07:40;;;;;;;9.33;5.57;;;1.90;99.90;;;;;;4933886;28;20469;-69
2023/03/01 01:10:07;;;;;;;11.60;5.07;;;1.90;99.90;;;;;;4911570;29;20496;-70
2023/03/01 01:12:33;;;;;;;9.70;6.13;;;2.10;99.90;;;;;;4915651;29;20211;-69
2023/03/01 01:14:58;;;;;;;11.80;5.70;;;2.10;99.90;;;;;;4915879;28;20981;-70
2023/03/01 01:17:24;;;;;;;7.83;5.20;;;2.20;99.90;;;;;;4919135;29;20565;-70
2023/03/01 01:19:50;;;;;;;7.40;5.10;;;2.20;99.90;;;;;;4907196;28;20254;-69
2023/03/01 01:22:15;;;;;;;10.60;6.47;;;2.20;99.90;;;;;;4897811;29;20283;-69
2023/03/01 01:24:41;;;;;;;10.93;5.60;;;2.20;99.90;;;;;;4915987;29;20215;-69
2023/03/01 01:27:07;;;;;;;7.93;5.23;;;2.30;99.90;;;;;;4918728;28;20304;-69
2023/03/01 01:29:33;;;;;;;8.57;5.00;;;2.10;99.90;;;;;;4920066;29;20245;-69
2023/03/01 01:31:59;;;;;;;10.07;6.60;;;2.10;99.90;;;;;;4917808;29;20266;-70
2023/03/01 01:34:24;;;;;;;9.57;6.17;;;2.10;99.90;;;;;;4923554;28;20843;-69
2023/03/01 01:36:53;;;;;;;10.83;6.40;;;2.20;99.90;;;;;;4925414;29;20234;-69
2023/03/01 01:39:20;;;;;;;10.20;5.53;;;2.20;99.90;;;;;;4926583;29;20293;-70
2023/03/01 01:41:46;;;;;;;7.17;5.37;;;2.20;99.90;;;;;;4918936;29;20471;-70
2023/03/01 01:44:19;;;;;;;10.60;6.60;;;2.10;99.90;;;;;;4916097;29;20529;-70
2023/03/01 01:46:53;;;;;;;8.57;5.87;;;2.10;99.90;;;;;;4923931;29;20534;-69
2023/03/01 01:49:19;;;;;;;11.03;5.77;;;2.10;99.90;;;;;;4938939;28;20476;-70
2023/03/01 01:51:49;;;;;;;11.87;7.00;;;2.10;99.90;;;;;;4925747;29;20536;-70
2023/03/01 01:54:24;;;;;;;14.97;6.73;;;2.20;99.90;;;;;;4938836;28;20271;-70
2023/03/01 01:57:03;;;;;;;9.33;5.13;;;2.20;99.90;;;;;;4906836;29;20469;-69
2023/03/01 01:59:31;;;;;;;10.87;5.80;;;2.20;99.90;;;;;;4921219;28;20452;-70
2023/03/01 02:02:01;;;;;;;7.50;5.40;;;2.20;99.90;;;;;;4918067;29;20536;-70
2023/03/01 02:04:29;;;;;;;8.47;5.80;;;2.20;99.90;;;;;;4920049;29;20844;-70
2023/03/01 02:07:08;;;;;;;10.30;5.43;;;2.20;99.90;;;;;;4918525;28;20476;-68
2023/03/01 02:09:35;;;;;;;9.07;5.57;;;2.20;99.90;;;;;;4944801;28;20538;-69
2023/03/01 02:12:01;;;;;;;8.83;5.90;;;2.20;99.90;;;;;;4921048;29;20594;-70
2023/03/01 02:14:27;;;;;;;9.67;5.87;;;2.20;99.90;;;;;;4927255;29;20808;-70
2023/03/01 02:16:53;;;;;;;10.20;6.07;;;2.20;99.90;;;;;;4920079;29;20516;-70
2023/03/01 02:19:37;;;;;;;7.97;5.47;;;2.20;99.90;;;;;;4924001;29;20880;-70
2023/03/01 02:22:16;;;;;;;10.60;5.60;;;2.20;99.90;;;;;;4918886;29;20239;-70
2023/03/01 02:25:00;;;;;;;11.93;6.20;;;2.20;99.90;;;;;;4920528;29;20545;-69
2023/03/01 02:27:36;;;;;;;11.10;5.77;;;2.10;99.90;;;;;;4904873;29;20477;-70
2023/03/01 02:30:02;;;;;;;9.53;5.63;;;2.10;99.90;;;;;;4918904;29;20469;-69
2023/03/01 02:32:28;;;;;;;12.07;6.43;;;2.10;99.90;;;;;;4925336;29;20547;-70
2023/03/01 02:34:55;;;;;;;12.10;6.93;;;2.10;99.90;;;;;;4921028;29;20454;-70
2023/03/01 02:37:24;;;;;;;18.60;5.73;;;2.00;99.90;;;;;;4926871;28;20529;-70
2023/03/01 02:39:57;;;;;;;11.70;5.93;;;1.90;99.90;;;;;;4919861;29;20463;-70
2023/03/01 02:42:30;;;;;;;9.23;5.87;;;1.90;99.90;;;;;;4924470;29;20470;-70
2023/03/01 02:44:56;;;;;;;12.30;6.87;;;1.90;99.90;;;;;;4902657;29;20458;-70
2023/03/01 02:47:22;;;;;;;13.20;6.43;;;1.90;99.90;;;;;;4910577;29;20457;-70
2023/03/01 02:49:47;;;;;;;13.07;6.30;;;1.90;99.90;;;;;;4909294;29;20474;-70
2023/03/01 02:52:21;;;;;;;11.60;6.40;;;1.90;99.90;;;;;;4920862;29;20215;-70
2023/03/01 02:55:09;;;;;;;18.33;7.30;;;1.90;99.90;;;;;;4927270;28;20218;-70
2023/03/01 02:57:37;;;;;;;20.67;5.40;;;1.90;99.90;;;;;;4938418;28;20462;-69
2023/03/01 03:00:07;;;;;;;7.67;6.13;;;1.90;99.90;;;;;;4916613;29;20478;-70
2023/03/01 03:02:37;;;;;;;10.20;5.93;;;2.00;99.90;;;;;;4924113;29;20462;-68
2023/03/01 03:05:19;;;;;;;7.63;5.13;;;2.00;99.90;;;;;;4919870;29;20485;-70
2023/03/01 03:07:47;;;;;;;9.23;6.70;;;2.00;99.90;;;;;;4925432;29;20470;-69
2023/03/01 03:10:16;;;;;;;8.53;5.93;;;2.00;99.90;;;;;;4898909;28;20814;-70
2023/03/01 03:12:42;;;;;;;8.00;5.90;;;1.90;99.90;;;;;;4906858;29;20472;-70
2023/03/01 03:15:12;;;;;;;9.17;5.00;;;2.00;99.90;;;;;;4907048;29;20501;-70
2023/03/01 03:17:40;;;;;;;11.83;6.20;;;2.00;99.90;;;;;;4936523;28;20462;-69
2023/03/01 03:20:10;;;;;;;12.00;6.40;;;2.00;99.90;;;;;;4920881;29;20554;-70
2023/03/01 03:22:40;;;;;;;12.47;6.23;;;2.00;99.90;;;;;;4921086;29;20455;-69
2023/03/01 03:25:10;;;;;;;9.63;5.93;;;2.00;99.90;;;;;;4905252;29;20479;-70
2023/03/01 03:27:41;;;;;;;9.27;6.70;;;2.00;99.90;;;;;;4925642;29;20463;-70
2023/03/01 03:30:09;;;;;;;10.97;6.80;;;2.00;99.90;;;;;;4938981;28;20474;-70
2023/03/01 03:32:39;;;;;;;12.50;5.30;;;2.00;99.90;;;;;;4922435;29;20471;-69
2023/03/01 03:35:09;;;;;;;11.13;5.70;;;2.00;99.90;;;;;;4926723;28;20466;-69
2023/03/01 03:40:31;;;;;;;8.90;5.40;;;2.00;99.90;;;;;;4927223;28;20477;-69
2023/03/01 03:42:56;;;;;;;9.60;6.03;;;2.00;99.90;;;;;;4917777;29;20483;-70
2023/03/01 03:45:22;;;;;;;11.43;5.83;;;2.00;99.90;;;;;;4924363;29;20473;-70
2023/03/01 03:47:48;;;;;;;8.67;5.97;;;2.10;99.90;;;;;;4919780;29;20218;-69
2023/03/01 03:50:15;;;;;;;10.40;6.43;;;2.10;99.90;;;;;;4906303;29;20231;-70
2023/03/01 03:52:42;;;;;;;9.07;5.23;;;2.00;99.90;;;;;;4916075;29;20485;-69
2023/03/01 03:55:10;;;;;;;13.97;6.33;;;2.00;99.90;;;;;;4914987;29;20487;-70
2023/03/01 03:57:51;;;;;;;8.97;5.70;;;2.10;99.90;;;;;;4921225;28;20475;-69
2023/03/01 04:00:18;;;;;;;9.20;5.73;;;2.00;99.90;;;;;;4904233;29;21039;-70
2023/03/01 04:02:45;;;;;;;9.87;6.10;;;2.00;99.90;;;;;;4922363;28;20541;-69
2023/03/01 04:05:12;;;;;;;9.97;6.53;;;2.00;99.90;;;;;;4901071;29;20558;-70
2023/03/01 04:07:38;;;;;;;10.63;6.03;;;2.00;99.90;;;;;;4925485;29;21015;-70
2023/03/01 04:10:07;;;;;;;11.13;6.50;;;2.00;99.90;;;;;;4922120;29;20498;-70
2023/03/01 04:12:34;;;;;;;12.63;5.67;;;2.00;99.90;;;;;;4924472;29;20458;-69
2023/03/01 04:15:01;;;;;;;11.40;6.80;;;2.00;99.90;;;;;;4927381;28;21023;-70
2023/03/01 04:17:27;;;;;;;9.67;6.00;;;1.90;99.90;;;;;;4924694;29;20458;-70
2023/03/01 04:19:53;;;;;;;15.90;7.37;;;2.00;99.90;;;;;;4924467;29;20457;-70
2023/03/01 04:22:18;;;;;;;11.43;6.30;;;1.90;99.90;;;;;;4929239;29;20459;-68
2023/03/01 04:24:45;;;;;;;10.30;6.53;;;1.90;99.90;;;;;;4927662;29;20245;-69
2023/03/01 04:27:11;;;;;;;10.17;6.40;;;1.90;99.90;;;;;;4928098;29;20214;-69
2023/03/01 04:29:37;;;;;;;12.47;6.13;;;1.80;99.90;;;;;;4926265;29;20459;-69
2023/03/01 04:32:03;;;;;;;15.00;7.27;;;1.80;99.90;;;;;;4937607;28;21003;-69
2023/03/01 04:34:29;;;;;;;9.87;5.83;;;1.80;99.90;;;;;;4929590;29;20215;-69
2023/03/01 04:36:55;;;;;;;12.40;7.40;;;1.90;99.90;;;;;;4925533;29;20226;-68
2023/03/01 04:39:21;;;;;;;16.33;6.83;;;2.00;99.90;;;;;;4927277;29;20459;-69
2023/03/01 04:41:47;;;;;;;11.20;6.27;;;2.00;99.90;;;;;;4920829;29;20227;-68
2023/03/01 04:44:13;;;;;;;16.93;8.00;;;1.90;99.90;;;;;;4940934;28;20315;-69
2023/03/01 04:46:39;;;;;;;8.00;5.53;;;1.90;99.90;;;;;;4928450;29;20234;-69
2023/03/01 04:49:05;;;;;;;9.40;5.77;;;1.80;99.90;;;;;;4913917;29;20226;-69
2023/03/01 04:51:32;;;;;;;9.90;5.77;;;1.80;99.90;;;;;;4929676;29;20470;-69
2023/03/01 04:54:00;;;;;;;14.47;7.53;;;1.80;99.90;;;;;;4925809;29;20352;-68
2023/03/01 04:56:25;;;;;;;10.60;5.73;;;1.70;99.90;;;;;;4941892;28;20462;-69
2023/03/01 04:58:53;;;;;;;11.17;6.87;;;1.70;99.90;;;;;;4922259;29;20834;-70
2023/03/01 05:01:20;;;;;;;13.47;6.77;;;1.80;99.90;;;;;;4924272;29;20226;-69
2023/03/01 05:03:51;;;;;;;12.20;7.23;;;1.70;99.90;;;;;;4922060;29;20511;-69
2023/03/01 05:06:18;;;;;;;12.87;7.20;;;1.70;99.90;;;;;;4922461;29;20462;-69
2023/03/01 05:08:44;;;;;;;14.03;6.67;;;1.70;99.90;;;;;;4917728;29;20888;-68
2023/03/01 05:11:11;;;;;;;13.17;7.20;;;1.70;99.90;;;;;;4910933;29;20538;-69
2023/03/01 05:13:38;;;;;;;13.40;6.60;;;1.70;99.90;;;;;;4932299;29;20473;-68
2023/03/01 05:16:05;;;;;;;12.40;6.97;;;1.80;99.90;;;;;;4929300;28;20511;-70
2023/03/01 05:18:33;;;;;;;11.63;7.00;;;1.80;99.90;;;;;;4929865;28;20477;-69
2023/03/01 05:21:03;;;;;;;13.17;7.10;;;1.80;99.90;;;;;;4922705;29;20473;-70
2023/03/01 05:23:33;;;;;;;9.00;5.50;;;1.80;99.90;;;;;;4929316;28;20491;-70
2023/03/01 05:26:00;;;;;;;12.77;6.33;;;1.80;99.90;;;;;;4927789;29;20490;-69
2023/03/01 05:28:27;;;;;;;14.47;7.50;;;1.80;99.90;;;;;;4927066;28;20458;-69
2023/03/01 05:30:54;;;;;;;10.17;6.33;;;1.80;99.90;;;;;;4929149;29;20465;-70
2023/03/01 05:33:21;;;;;;;11.87;6.10;;;1.80;99.90;;;;;;4931696;29;20465;-69
2023/03/01 05:35:48;;;;;;;15.03;7.73;;;1.70;99.90;;;;;;4925216;29;20466;-69
2023/03/01 05:38:15;;;;;;;15.07;7.73;;;1.60;99.90;;;;;;4925006;29;20463;-70
2023/03/01 05:40:43;;;;;;;10.77;6.03;;;1.70;99.90;;;;;;4932197;29;20474;-69
2023/03/01 05:43:09;;;;;;;22.03;7.10;;;1.60;99.90;;;;;;4923329;29;20559;-69
2023/03/01 05:45:36;;;;;;;12.40;6.70;;;1.60;99.90;;;;;;4932254;28;21116;-70
2023/03/01 05:48:03;;;;;;;9.97;5.53;;;1.60;99.90;;;;;;4926043;29;20526;-68
2023/03/01 05:50:31;;;;;;;13.60;6.83;;;1.60;99.90;;;;;;4925014;29;20463;-70
2023/03/01 05:53:23;;;;;;;9.97;6.37;;;1.70;99.90;;;;;;4944727;28;20552;-70
2023/03/01 05:55:49;;;;;;;12.00;6.10;;;1.60;99.90;;;;;;4911783;29;20463;-68
2023/03/01 05:58:17;;;;;;;14.40;7.97;;;1.70;99.90;;;;;;4931869;29;20456;-70
2023/03/01 06:00:44;;;;;;;11.70;6.30;;;1.60;99.90;;;;;;4944775;28;20482;-67
2023/03/01 06:03:11;;;;;;;14.47;8.37;;;1.60;99.90;;;;;;4926748;29;20463;-68
2023/03/01 06:05:37;;;;;;;12.83;7.20;;;1.60;99.90;;;;;;4926674;29;20454;-68
2023/03/01 06:08:03;;;;;;;11.40;6.77;;;1.60;99.90;;;;;;4926718;28;20493;-69
2023/03/01 06:10:29;;;;;;;11.90;7.33;;;1.60;99.90;;;;;;4925996;29;20576;-70
2023/03/01 06:12:55;;;;;;;15.20;6.97;;;1.60;99.90;;;;;;4929103;29;20226;-70
2023/03/01 06:15:21;;;;;;;16.20;7.07;;;1.60;99.90;;;;;;4949788;28;20236;-67
2023/03/01 06:17:47;;;;;;;10.60;6.43;;;1.70;99.90;;;;;;4929026;29;20501;-67
2023/03/01 06:20:17;;;;;;;15.00;7.57;;;1.70;99.90;;;;;;4926805;29;20473;-69
2023/03/01 06:22:44;;;;;;;16.33;7.63;;;1.70;99.90;;;;;;4909112;29;20455;-70
2023/03/01 06:25:12;;;;;;;13.67;7.10;;;1.70;99.90;;;;;;4923703;29;20467;-70
2023/03/01 06:27:38;;;;;;;10.40;6.03;;;1.70;99.90;;;;;;4924274;29;20465;-70
2023/03/01 06:30:04;;;;;;;14.97;7.50;;;1.70;99.90;;;;;;4917682;28;20572;-69
2023/03/01 06:32:31;;;;;;;10.63;5.50;;;1.70;99.90;;;;;;4917645;29;20466;-70
2023/03/01 06:34:58;;;;;;;14.37;7.43;;;1.70;99.90;;;;;;4924719;29;21027;-70
2023/03/01 06:37:27;;;;;;;15.87;6.73;;;1.70;99.90;;;;;;4920094;29;20552;-70
2023/03/01 06:39:53;;;;;;;14.40;7.27;;;1.70;99.90;;;;;;4920091;29;20558;-68
2023/03/01 06:42:18;;;;;;;16.67;8.10;;;1.70;99.90;;;;;;4901122;29;20530;-70
2023/03/01 06:44:45;;;;;;;21.33;8.77;;;1.70;99.90;;;;;;4919128;29;20219;-69
2023/03/01 06:47:11;;;;;;;12.93;7.20;;;1.60;99.90;;;;;;4926412;29;20219;-69
2023/03/01 06:49:36;;;;;;;12.27;6.77;;;1.60;99.90;;;;;;4925243;28;20464;-70
2023/03/01 06:52:02;;;;;;;16.73;8.30;;;1.60;99.90;;;;;;4923099;29;20220;-70
2023/03/01 06:54:28;;;;;;;18.07;8.40;;;1.60;99.90;;;;;;4925467;29;20282;-70
2023/03/01 06:56:54;;;;;;;15.03;7.20;;;1.60;99.90;;;;;;4915469;29;20230;-70
2023/03/01 06:59:19;;;;;;;11.67;7.07;;;1.60;99.90;;;;;;4924671;28;20243;-70
2023/03/01 07:01:45;;;;;;;14.67;7.17;;;1.60;99.90;;;;;;4932032;28;20243;-70
2023/03/01 07:04:12;;;;;;;14.20;7.50;;;1.60;99.90;;;;;;4946699;28;20226;-70
2023/03/01 07:06:37;;;;;;;17.80;8.90;;;1.60;99.90;;;;;;4925196;28;20221;-70
2023/03/01 07:09:03;;;;;;;12.87;6.93;;;1.60;99.90;;;;;;4907677;28;20473;-70
2023/03/01 07:11:29;;;;;;;11.50;6.40;;;1.60;99.90;;;;;;4926027;29;20247;-69
2023/03/01 07:13:55;;;;;;;14.43;7.30;;;1.70;99.90;;;;;;4914807;29;20229;-71
2023/03/01 07:16:21;;;;;;;15.43;6.87;;;1.70;99.90;;;;;;4928810;29;20225;-70
2023/03/01 07:18:46;;;;;;;12.00;6.80;;;1.70;99.90;;;;;;4922521;29;20451;-70
2023/03/01 07:21:14;;;;;;;11.57;7.10;;;1.70;99.90;;;;;;4932724;29;20458;-69
2023/03/01 07:23:40;;;;;;;12.03;6.60;;;1.70;99.90;;;;;;4924048;29;20301;-68
2023/03/01 07:26:06;;;;;;;10.83;7.10;;;1.70;99.90;;;;;;4936559;28;20497;-70
2023/03/01 07:28:35;;;;;;;15.40;7.60;;;1.70;99.90;;;;;;4915573;29;20481;-69
2023/03/01 07:31:07;;;;;;;12.87;6.80;;;1.70;99.90;;;;;;4931001;28;20462;-70
2023/03/01 07:33:33;;;;;;;14.40;6.27;;;1.70;99.90;;;;;;4922569;29;20467;-69
2023/03/01 07:36:01;;;;;;;13.33;6.83;;;1.70;99.90;;;;;;4920823;29;20469;-69
2023/03/01 07:38:27;;;;;;;13.63;6.17;;;1.60;99.90;;;;;;4942278;28;20246;-70
2023/03/01 07:40:53;;;;;;;10.77;6.97;;;1.60;99.90;;;;;;4927518;29;21000;-69
2023/03/01 07:43:20;;;;;;;12.00;6.80;;;1.70;99.90;;;;;;4921047;29;20444;-70
2023/03/01 07:45:46;;;;;;;11.83;6.90;;;1.70;99.90;;;;;;4925751;29;20314;-69
2023/03/01 07:48:12;;;;;;;10.83;7.77;;;1.80;99.90;;;;;;4924268;29;20473;-69
2023/03/01 07:50:37;;;;;;;12.40;7.37;;;1.70;99.90;;;;;;4924542;29;20531;-70
2023/03/01 07:53:03;;;;;;;14.30;7.77;;;1.70;99.90;;;;;;4921939;29;20236;-70
2023/03/01 07:55:29;;;;;;;11.30;7.00;;;1.80;99.90;;;;;;4924589;29;20225;-70
2023/03/01 07:57:54;;;;;;;11.13;7.30;;;1.80;99.90;;;;;;4906979;28;20222;-70
2023/03/01 08:00:20;;;;;;;14.30;6.67;;;1.80;99.90;;;;;;4926129;29;20231;-70
2023/03/01 08:02:46;;;;;;;11.87;6.73;;;1.90;99.90;;;;;;4927034;29;20309;-69
2023/03/01 08:05:11;;;;;;;12.03;7.67;;;1.90;99.90;;;;;;4921810;28;20736;-70
2023/03/01 08:07:37;;;;;;;14.53;7.27;;;2.00;99.90;;;;;;4923157;29;20619;-69
2023/03/01 08:10:04;;;;;;;14.40;8.10;;;2.00;99.90;;;;;;4922865;28;20272;-70
2023/03/01 08:12:30;;;;;;;13.73;6.07;;;2.00;99.90;;;;;;4923926;29;20460;-70
2023/03/01 08:14:56;;;;;;;12.90;6.90;;;2.10;99.90;;;;;;4942488;28;20467;-70
2023/03/01 08:17:22;;;;;;;13.47;7.30;;;2.20;99.90;;;;;;4919910;29;20732;-70
2023/03/01 08:19:48;;;;;;;12.90;7.93;;;2.20;99.90;;;;;;4913663;29;20466;-69
2023/03/01 08:22:14;;;;;;;14.20;7.07;;;2.20;99.90;;;;;;4916164;29;20475;-70
2023/03/01 08:24:40;;;;;;;10.37;6.30;;;2.30;99.90;;;;;;4924250;29;20231;-68
2023/03/01 08:27:06;;;;;;;13.97;7.57;;;2.30;99.90;;;;;;4926329;29;20469;-70
2023/03/01 08:29:32;;;;;;;16.50;8.10;;;2.30;99.90;;;;;;4916782;29;20227;-69
2023/03/01 08:31:58;;;;;;;12.00;7.33;;;2.30;99.90;;;;;;4938491;28;20281;-70
2023/03/01 08:34:23;;;;;;;11.47;7.47;;;2.30;99.90;;;;;;4920486;29;20474;-70
2023/03/01 08:36:51;;;;;;;15.77;8.37;;;2.30;99.90;;;;;;4916950;29;20317;-69
2023/03/01 08:39:19;;;;;;;13.90;8.37;;;2.30;99.90;;;;;;4923737;29;20230;-68
2023/03/01 08:41:46;;;;;;;11.53;6.60;;;2.40;99.90;;;;;;4937101;28;20565;-70
2023/03/01 08:44:13;;;;;;;13.13;7.57;;;2.50;99.90;;;;;;4928233;29;20473;-70
2023/03/01 08:46:41;;;;;;;16.67;8.27;;;2.50;99.90;;;;;;4946980;28;20550;-70
2023/03/01 08:49:08;;;;;;;15.63;7.93;;;2.60;99.90;;;;;;4923267;28;20510;-69
2023/03/01 08:51:36;;;;;;;13.23;7.10;;;2.60;99.90;;;;;;4924151;28;20546;-68
2023/03/01 08:54:07;;;;;;;13.77;7.13;;;2.70;99.90;;;;;;4927627;28;20448;-70
2023/03/01 08:56:33;;;;;;;15.10;8.00;;;2.80;99.90;;;;;;4922092;29;20499;-68
2023/03/01 08:58:59;;;;;;;12.80;8.17;;;2.80;99.90;;;;;;4908445;29;20509;-70
2023/03/01 09:01:25;;;;;;;12.77;7.20;;;2.70;99.90;;;;;;4925396;29;20479;-70
2023/03/01 09:03:51;;;;;;;13.53;8.07;;;2.90;99.90;;;;;;4920315;29;20558;-69
2023/03/01 09:06:16;;;;;;;9.97;7.30;;;3.00;99.90;;;;;;4905560;29;20457;-69
2023/03/01 09:08:45;;;;;;;12.70;7.23;;;3.00;99.90;;;;;;4930964;28;20236;-69
2023/03/01 09:11:13;;;;;;;10.77;6.73;;;3.00;99.90;;;;;;4921320;29;20311;-70
2023/03/01 09:13:39;;;;;;;16.60;8.30;;;3.10;99.90;;;;;;4909215;29;20467;-68
2023/03/01 09:16:06;;;;;;;12.30;6.77;;;3.30;99.90;;;;;;4926123;29;20466;-70
2023/03/01 09:18:33;;;;;;;14.47;7.77;;;3.30;99.90;;;;;;4942173;28;20231;-69
2023/03/01 09:21:07;;;;;;;17.60;8.37;;;3.20;99.90;;;;;;4926255;28;20481;-69
2023/03/01 09:23:36;;;;;;;9.50;5.90;;;3.10;99.90;;;;;;4920359;29;20458;-69
2023/03/01 09:26:02;;;;;;;18.27;8.30;;;3.30;99.90;;;;;;4945533;28;20463;-70
2023/03/01 09:28:28;;;;;;;20.90;9.30;;;3.20;99.90;;;;;;4915741;29;20450;-70
2023/03/01 09:30:58;;;;;;;17.63;7.50;;;3.20;99.90;;;;;;4935133;28;20473;-71
2023/03/01 09:33:23;;;;;;;9.70;7.00;;;3.30;99.90;;;;;;4919378;28;20230;-69
2023/03/01 09:35:49;;;;;;;16.60;7.83;;;3.40;99.90;;;;;;4945641;28;20968;-69
2023/03/01 09:38:15;;;;;;;16.37;9.03;;;3.40;99.90;;;;;;4916435;29;20610;-70
2023/03/01 09:40:46;;;;;;;13.67;8.70;;;3.50;99.90;;;;;;4920229;29;20291;-68
2023/03/01 09:43:20;;;;;;;13.80;8.13;;;3.50;99.90;;;;;;4903584;29;20211;-70
2023/03/01 09:45:49;;;;;;;13.53;8.17;;;3.40;99.90;;;;;;4922887;29;20541;-69
2023/03/01 09:48:24;;;;;;;11.10;7.20;;;3.50;99.90;;;;;;4926571;28;20550;-69
2023/03/01 09:50:51;;;;;;;16.37;8.70;;;3.70;99.90;;;;;;4916622;28;20470;-70
2023/03/01 09:53:20;;;;;;;15.63;7.77;;;3.60;99.90;;;;;;4917883;29;20460;-70
2023/03/01 09:55:59;;;;;;;17.53;7.47;;;3.70;99.90;;;;;;4924700;29;20515;-70
2023/03/01 09:58:31;;;;;;;15.57;7.70;;;3.50;99.90;;;;;;4945734;28;20534;-70
2023/03/01 10:01:01;;;;;;;14.57;8.13;;;3.60;99.90;;;;;;4921207;29;20478;-70
2023/03/01 10:03:33;;;;;;;15.50;9.07;;;3.70;99.90;;;;;;4910562;29;21079;-70
2023/03/01 10:06:14;;;;;;;11.53;6.80;;;4.00;99.90;;;;;;4928550;29;20468;-70
2023/03/01 10:08:56;;;;;;;20.43;9.60;;;4.10;99.90;;;;;;4924192;28;20474;-69
2023/03/01 10:11:36;;;;;;;15.73;9.20;;;4.00;99.90;;;;;;4927488;29;20460;-70
2023/03/01 10:14:18;;;;;;;17.67;8.60;;;4.00;99.90;;;;;;4928474;29;20463;-71
2023/03/01 10:16:48;;;;;;;14.20;8.63;;;4.10;99.90;;;;;;4927023;29;20458;-69
2023/03/01 10:19:21;;;;;;;16.30;9.37;;;4.10;99.90;;;;;;4947661;28;20937;-71
2023/03/01 10:21:50;;;;;;;14.13;8.63;;;4.30;99.90;;;;;;4921334;29;20484;-70
2023/03/01 10:24:19;;;;;;;15.53;9.07;;;4.20;99.90;;;;;;4945089;28;20528;-70
2023/03/01 10:26:53;;;;;;;13.13;8.23;;;4.00;99.90;;;;;;4908991;29;20459;-69
2023/03/01 10:29:25;;;;;;;18.47;8.50;;;4.20;99.90;;;;;;4920928;29;20455;-70
2023/03/01 10:31:52;;;;;;;16.00;8.77;;;4.40;99.90;;;;;;4916407;29;20852;-69
2023/03/01 10:34:27;;;;;;;15.50;8.93;;;4.40;99.90;;;;;;4912707;29;20541;-70
2023/03/01 10:36:56;;;;;;;15.37;8.67;;;4.40;99.90;;;;;;4924382;29;20470;-69
2023/03/01 10:39:24;;;;;;;17.67;10.07;;;4.50;99.90;;;;;;4916875;29;20839;-71
2023/03/01 10:41:57;;;;;;;15.50;7.90;;;4.50;99.90;;;;;;4923033;28;20480;-70
2023/03/01 10:44:46;;;;;;;20.70;11.40;;;4.70;99.90;;;;;;4906640;29;20459;-70
2023/03/01 10:47:23;;;;;;;19.07;10.47;;;5.00;99.90;;;;;;4936736;28;20474;-70
2023/03/01 10:49:53;;;;;;;20.73;10.77;;;5.00;99.90;;;;;;4925963;28;20461;-70
2023/03/01 10:52:21;;;;;;;18.13;10.87;;;4.90;99.90;;;;;;4921173;29;20463;-72
2023/03/01 10:55:13;;;;;;;18.60;9.80;;;4.90;99.90;;;;;;4923664;29;20574;-70
2023/03/01 10:57:40;;;;;;;15.00;9.13;;;4.80;99.70;;;;;;4923151;29;20983;-70
2023/03/01 11:00:19;;;;;;;18.47;11.80;;;5.10;99.80;;;;;;4956071;28;20481;-70
2023/03/01 11:03:09;;;;;;;16.17;9.27;;;4.90;99.70;;;;;;4932482;29;20554;-70
2023/03/01 11:05:35;;;;;;;12.23;8.20;;;4.60;99.90;;;;;;4930608;29;20479;-70
2023/03/01 11:08:03;;;;;;;18.70;9.53;;;4.50;99.90;;;;;;4921139;28;20475;-71
2023/03/01 11:10:34;;;;;;;14.37;8.97;;;4.80;99.90;;;;;;4913891;29;20242;-71
2023/03/01 11:13:17;;;;;;;18.37;9.27;;;4.60;99.90;;;;;;4920076;28;21004;-70
2023/03/01 11:15:57;;;;;;;16.57;9.43;;;4.60;99.90;;;;;;4905494;29;20546;-69
2023/03/01 11:18:23;;;;;;;14.77;7.83;;;4.60;99.90;;;;;;4921990;29;20458;-70
2023/03/01 11:20:52;;;;;;;15.50;9.00;;;4.50;99.90;;;;;;4941348;28;20470;-69
2023/03/01 11:23:19;;;;;;;16.80;8.43;;;4.70;99.90;;;;;;4906700;29;20231;-70
2023/03/01 11:25:56;;;;;;;11.43;8.03;;;4.70;99.90;;;;;;4945036;28;20555;-70
2023/03/01 11:28:24;;;;;;;14.10;8.13;;;4.70;99.90;;;;;;4944233;28;20520;-71
2023/03/01 11:30:59;;;;;;;14.37;8.80;;;4.80;99.90;;;;;;4930149;28;20470;-70
2023/03/01 11:33:34;;;;;;;15.63;8.97;;;4.80;99.90;;;;;;4922981;29;20799;-70
2023/03/01 11:36:27;;;;;;;14.83;8.93;;;4.80;99.90;;;;;;4928840;28;20503;-71
2023/03/01 11:38:55;;;;;;;14.97;8.93;;;5.10;99.80;;;;;;4903631;29;20467;-70
2023/03/01 11:41:26;;;;;;;15.03;9.10;;;5.20;99.60;;;;;;4919572;29;20470;-70
2023/03/01 11:44:16;;;;;;;19.10;9.10;;;5.40;99.80;;;;;;4924122;29;20467;-70
2023/03/01 11:47:12;;;;;;;14.77;9.00;;;5.40;99.70;;;;;;4920167;29;20472;-70
2023/03/01 11:50:02;;;;;;;20.13;7.70;;;5.20;99.90;;;;;;4919436;28;20552;-70
2023/03/01 11:52:42;;;;;;;15.27;9.00;;;5.60;99.60;;;;;;4924706;29;20842;-70
2023/03/01 11:55:42;;;;;;;17.70;9.70;;;5.70;99.70;;;;;;4926859;29;20574;-71
2023/03/01 11:58:36;;;;;;;13.03;7.93;;;5.60;98.90;;;;;;4886850;29;20460;-71
2023/03/01 12:01:23;;;;;;;14.00;8.20;;;5.70;98.90;;;;;;4902813;29;20585;-70
2023/03/01 12:03:54;;;;;;;20.50;9.40;;;5.70;99.00;;;;;;4909344;29;21048;-70
2023/03/01 12:06:27;;;;;;;15.43;8.80;;;5.60;99.40;;;;;;4923348;29;20447;-71
2023/03/01 12:09:10;;;;;;;12.17;8.20;;;5.60;99.00;;;;;;4937529;28;20924;-71
2023/03/01 12:11:51;;;;;;;13.20;8.67;;;5.60;98.90;;;;;;4920849;29;20493;-69
2023/03/01 12:14:41;;;;;;;13.83;9.10;;;5.60;99.10;;;;;;4916445;29;20986;-71
2023/03/01 12:17:34;;;;;;;17.13;9.07;;;5.50;99.00;;;;;;4921278;29;20490;-70
2023/03/01 12:20:13;;;;;;;24.07;11.50;;;5.60;99.10;;;;;;4919988;28;20551;-70
2023/03/01 12:22:56;;;;;;;21.23;12.33;;;6.00;98.70;;;;;;4924885;29;20464;-69
2023/03/01 12:25:33;;;;;;;21.17;12.30;;;5.90;98.60;;;;;;4917494;29;20530;-70
2023/03/01 12:28:36;;;;;;;25.13;10.70;;;6.00;98.70;;;;;;4899274;29;20472;-71
2023/03/01 12:31:04;;;;;;;14.93;9.90;;;5.80;98.80;;;;;;4924856;29;20549;-68
2023/03/01 12:33:36;;;;;;;16.10;9.30;;;5.90;98.80;;;;;;4932033;28;20465;-69
2023/03/01 12:36:35;;;;;;;14.93;8.23;;;5.80;98.60;;;;;;4916808;28;20482;-68
2023/03/01 12:39:23;;;;;;;15.10;8.40;;;5.70;98.70;;;;;;4917993;29;20989;-69
2023/03/01 12:42:05;;;;;;;12.67;7.93;;;5.60;98.40;;;;;;4922773;29;20833;-68
2023/03/01 12:44:49;;;;;;;10.07;7.53;;;5.70;98.40;;;;;;4928639;29;20498;-68
2023/03/01 12:47:27;;;;;;;16.50;8.17;;;5.70;98.60;;;;;;4921105;29;20455;-68
2023/03/01 12:50:01;;;;;;;14.33;7.00;;;5.70;99.10;;;;;;4929106;28;20473;-70
2023/03/01 12:52:38;;;;;;;12.73;7.40;;;5.80;98.50;;;;;;4925013;29;20467;-70
2023/03/01 12:55:38;;;;;;;15.67;7.93;;;5.80;98.50;;;;;;4924903;28;20462;-71
2023/03/01 12:58:09;;;;;;;10.43;6.70;;;6.00;98.40;;;;;;4912361;28;20836;-71
2023/03/01 13:01:17;;;;;;;10.10;7.37;;;5.90;98.00;;;;;;4926288;28;20483;-70
2023/03/01 13:04:07;;;;;;;10.93;7.10;;;5.80;98.10;;;;;;4903546;29;20458;-71
2023/03/01 13:06:57;;;;;;;8.70;6.57;;;5.80;98.10;;;;;;4942175;28;20470;-70